SZN313 GOBD-DFFD
Flight info
| Callsign | SZN313 |
|---|---|
| Flight time | 2h 13m |
| Altitude | 35000 |
| Route | NURAS1H NURAS A601 TD UA601 BKO UG860 EDGIB EDGIB1A |
| Aircraft | B738/M-SDE2E3FGHIRWXY/LB1 |
Departure
| Time | 2026-04-23 14:28 |
|---|---|
| Airport | Blaise Diagne International Airport (GOBD) |
Arrival
| Time | 2026-04-23 16:42 |
|---|---|
| Airport | Ouagadougou Thomas Sankara International Airport (DFFD) |
| Time | Latitude | Longitude | Altitude | Speed | Heading |
|---|---|---|---|---|---|
| 2026-04-23 13:45 | 14.67434 | -17.06804 | 270 ft | 0 kts | 179° |
| 2026-04-23 14:19 | 14.67440 | -17.06804 | 270 ft | 4 kts | 180° |
| 2026-04-23 14:19 | 14.67467 | -17.06803 | 270 ft | 4 kts | 185° |
| 2026-04-23 14:19 | 14.67493 | -17.06800 | 273 ft | 4 kts | 192° |
| 2026-04-23 14:20 | 14.67519 | -17.06792 | 273 ft | 4 kts | 209° |
| 2026-04-23 14:20 | 14.67536 | -17.06776 | 270 ft | 3 kts | 263° |
| 2026-04-23 14:20 | 14.67537 | -17.06768 | 270 ft | 0 kts | 269° |
| 2026-04-23 14:23 | 14.67537 | -17.06775 | 270 ft | 4 kts | 269° |
| 2026-04-23 14:23 | 14.67536 | -17.06815 | 270 ft | 7 kts | 269° |
| 2026-04-23 14:23 | 14.67536 | -17.06879 | 270 ft | 10 kts | 270° |
| 2026-04-23 14:24 | 14.67534 | -17.06962 | 270 ft | 13 kts | 269° |
| 2026-04-23 14:24 | 14.67533 | -17.07059 | 267 ft | 12 kts | 275° |
| 2026-04-23 14:24 | 14.67609 | -17.07096 | 265 ft | 14 kts | 360° |
| 2026-04-23 14:24 | 14.67706 | -17.07096 | 265 ft | 14 kts | 360° |
| 2026-04-23 14:25 | 14.67816 | -17.07098 | 264 ft | 17 kts | 359° |
| 2026-04-23 14:25 | 14.67940 | -17.07099 | 263 ft | 18 kts | 359° |
| 2026-04-23 14:25 | 14.68066 | -17.07100 | 265 ft | 18 kts | 360° |
| 2026-04-23 14:25 | 14.68189 | -17.07101 | 265 ft | 17 kts | 359° |
| 2026-04-23 14:26 | 14.68310 | -17.07103 | 264 ft | 18 kts | 359° |
| 2026-04-23 14:26 | 14.68441 | -17.07105 | 264 ft | 19 kts | 359° |
| 2026-04-23 14:26 | 14.68548 | -17.07111 | 265 ft | 11 kts | 337° |
| 2026-04-23 14:26 | 14.68572 | -17.07179 | 267 ft | 11 kts | 269° |
| 2026-04-23 14:27 | 14.68569 | -17.07254 | 268 ft | 10 kts | 271° |
| 2026-04-23 14:27 | 14.68525 | -17.07295 | 267 ft | 10 kts | 182° |
| 2026-04-23 14:27 | 14.68351 | -17.07293 | 266 ft | 56 kts | 179° |
| 2026-04-23 14:27 | 14.67706 | -17.07288 | 261 ft | 127 kts | 180° |
| 2026-04-23 14:28 | 14.66622 | -17.07278 | 268 ft | 183 kts | 180° |
| 2026-04-23 14:28 | 14.65267 | -17.07264 | 763 ft | 195 kts | 177° |
| 2026-04-23 14:28 | 14.63940 | -17.07232 | 1637 ft | 192 kts | 180° |
| 2026-04-23 14:28 | 14.62521 | -17.07213 | 1998 ft | 219 kts | 179° |
| 2026-04-23 14:29 | 14.60935 | -17.07192 | 2366 ft | 234 kts | 179° |
| 2026-04-23 14:29 | 14.59249 | -17.07181 | 2645 ft | 251 kts | 180° |
| 2026-04-23 14:29 | 14.57424 | -17.07171 | 2885 ft | 273 kts | 180° |
| 2026-04-23 14:29 | 14.55502 | -17.07157 | 3348 ft | 285 kts | 181° |
| 2026-04-23 14:30 | 14.53521 | -17.06926 | 4072 ft | 289 kts | 161° |
| 2026-04-23 14:30 | 14.51824 | -17.05854 | 4934 ft | 287 kts | 134° |
| 2026-04-23 14:30 | 14.50635 | -17.04202 | 5622 ft | 290 kts | 115° |
| 2026-04-23 14:30 | 14.50171 | -17.02200 | 6395 ft | 287 kts | 90° |
| 2026-04-23 14:31 | 14.50221 | -17.00157 | 7227 ft | 283 kts | 88° |
| 2026-04-23 14:31 | 14.50299 | -16.98140 | 8034 ft | 281 kts | 88° |
| 2026-04-23 14:31 | 14.50339 | -16.96801 | 8474 ft | 284 kts | 89° |
| 2026-04-23 14:31 | 14.50375 | -16.94769 | 9267 ft | 279 kts | 90° |
| 2026-04-23 14:32 | 14.50396 | -16.92776 | 10080 ft | 277 kts | 91° |
| 2026-04-23 14:32 | 14.50413 | -16.90746 | 10479 ft | 292 kts | 90° |
| 2026-04-23 14:32 | 14.50436 | -16.87825 | 10705 ft | 320 kts | 91° |
| 2026-04-23 14:32 | 14.50421 | -16.86254 | 10895 ft | 329 kts | 95° |
| 2026-04-23 14:33 | 14.50108 | -16.83882 | 11303 ft | 338 kts | 101° |
| 2026-04-23 14:33 | 14.49625 | -16.81493 | 11888 ft | 342 kts | 103° |
| 2026-04-23 14:33 | 14.49096 | -16.79084 | 12492 ft | 346 kts | 104° |
| 2026-04-23 14:33 | 14.48558 | -16.76649 | 13105 ft | 351 kts | 103° |
| 2026-04-23 14:34 | 14.48021 | -16.74174 | 13690 ft | 356 kts | 103° |
| 2026-04-23 14:34 | 14.47487 | -16.71659 | 14218 ft | 362 kts | 103° |
| 2026-04-23 14:34 | 14.46953 | -16.69095 | 14740 ft | 368 kts | 103° |
| 2026-04-23 14:34 | 14.46417 | -16.66497 | 15239 ft | 375 kts | 102° |
| 2026-04-23 14:35 | 14.45877 | -16.63851 | 15801 ft | 379 kts | 102° |
| 2026-04-23 14:35 | 14.45340 | -16.61212 | 16389 ft | 382 kts | 102° |
| 2026-04-23 14:35 | 14.44791 | -16.58507 | 16878 ft | 389 kts | 102° |
| 2026-04-23 14:35 | 14.44235 | -16.55768 | 17442 ft | 392 kts | 102° |
| 2026-04-23 14:36 | 14.43676 | -16.53008 | 18087 ft | 394 kts | 102° |
| 2026-04-23 14:36 | 14.43109 | -16.50215 | 18500 ft | 400 kts | 102° |
| 2026-04-23 14:36 | 14.42534 | -16.47384 | 18892 ft | 406 kts | 102° |
| 2026-04-23 14:36 | 14.41953 | -16.44522 | 19373 ft | 408 kts | 102° |
| 2026-04-23 14:37 | 14.41369 | -16.41650 | 19865 ft | 410 kts | 102° |
| 2026-04-23 14:37 | 14.40780 | -16.38755 | 20321 ft | 414 kts | 103° |
| 2026-04-23 14:37 | 14.40186 | -16.35840 | 20782 ft | 416 kts | 103° |
| 2026-04-23 14:37 | 14.39588 | -16.32907 | 21229 ft | 420 kts | 103° |
| 2026-04-23 14:38 | 14.38986 | -16.29951 | 21654 ft | 423 kts | 103° |
| 2026-04-23 14:38 | 14.38377 | -16.26970 | 22088 ft | 426 kts | 103° |
| 2026-04-23 14:38 | 14.37766 | -16.23973 | 22516 ft | 429 kts | 103° |
| 2026-04-23 14:38 | 14.37147 | -16.20947 | 22933 ft | 432 kts | 103° |
| 2026-04-23 14:39 | 14.36525 | -16.17901 | 23346 ft | 435 kts | 103° |
| 2026-04-23 14:39 | 14.35907 | -16.14884 | 23702 ft | 437 kts | 103° |
| 2026-04-23 14:39 | 14.35278 | -16.11810 | 24046 ft | 439 kts | 103° |
| 2026-04-23 14:39 | 14.34644 | -16.08714 | 24365 ft | 442 kts | 103° |
| 2026-04-23 14:40 | 14.34006 | -16.05601 | 24668 ft | 445 kts | 103° |
| 2026-04-23 14:40 | 14.33364 | -16.02471 | 24977 ft | 448 kts | 103° |
| 2026-04-23 14:40 | 14.32732 | -15.99390 | 25275 ft | 451 kts | 103° |
| 2026-04-23 14:40 | 14.32080 | -15.96218 | 25593 ft | 454 kts | 103° |
| 2026-04-23 14:41 | 14.31425 | -15.93028 | 25876 ft | 456 kts | 103° |
| 2026-04-23 14:41 | 14.30764 | -15.89815 | 26181 ft | 459 kts | 102° |
| 2026-04-23 14:41 | 14.30100 | -15.86591 | 26480 ft | 461 kts | 102° |
| 2026-04-23 14:41 | 14.29433 | -15.83353 | 26766 ft | 464 kts | 102° |
| 2026-04-23 14:42 | 14.28761 | -15.80091 | 27046 ft | 466 kts | 102° |
| 2026-04-23 14:42 | 14.28083 | -15.76808 | 27325 ft | 469 kts | 102° |
| 2026-04-23 14:42 | 14.27402 | -15.73508 | 27602 ft | 472 kts | 102° |
| 2026-04-23 14:42 | 14.26716 | -15.70187 | 27871 ft | 474 kts | 102° |
| 2026-04-23 14:43 | 14.26026 | -15.66852 | 28139 ft | 477 kts | 102° |
| 2026-04-23 14:43 | 14.25334 | -15.63504 | 28409 ft | 479 kts | 102° |
| 2026-04-23 14:43 | 14.24638 | -15.60147 | 28713 ft | 480 kts | 102° |
| 2026-04-23 14:43 | 14.23939 | -15.56774 | 28974 ft | 482 kts | 102° |
| 2026-04-23 14:44 | 14.23236 | -15.53386 | 29206 ft | 485 kts | 102° |
| 2026-04-23 14:44 | 14.22529 | -15.49980 | 29427 ft | 487 kts | 102° |
| 2026-04-23 14:44 | 14.21788 | -15.46565 | 29672 ft | 489 kts | 104° |
| 2026-04-23 14:44 | 14.20932 | -15.43163 | 29927 ft | 491 kts | 105° |
| 2026-04-23 14:45 | 14.20014 | -15.39774 | 30140 ft | 492 kts | 106° |
| 2026-04-23 14:45 | 14.19080 | -15.36419 | 30383 ft | 493 kts | 106° |
| 2026-04-23 14:45 | 14.18137 | -15.33032 | 30720 ft | 491 kts | 106° |
| 2026-04-23 14:45 | 14.17206 | -15.29655 | 31089 ft | 489 kts | 106° |
| 2026-04-23 14:46 | 14.16288 | -15.26286 | 31448 ft | 487 kts | 106° |
| 2026-04-23 14:46 | 14.15382 | -15.22934 | 31761 ft | 486 kts | 106° |
| 2026-04-23 14:46 | 14.14478 | -15.19570 | 32070 ft | 486 kts | 106° |
| 2026-04-23 14:46 | 14.13579 | -15.16222 | 32408 ft | 485 kts | 106° |
| 2026-04-23 14:47 | 14.12682 | -15.12875 | 32754 ft | 483 kts | 106° |
| 2026-04-23 14:47 | 14.11787 | -15.09541 | 33104 ft | 482 kts | 106° |
| 2026-04-23 14:47 | 14.10895 | -15.06220 | 33427 ft | 481 kts | 106° |
| 2026-04-23 14:47 | 14.10002 | -15.02903 | 33748 ft | 480 kts | 106° |
| 2026-04-23 14:48 | 14.09130 | -14.99665 | 34046 ft | 479 kts | 106° |
| 2026-04-23 14:48 | 14.08243 | -14.96372 | 34372 ft | 476 kts | 106° |
| 2026-04-23 14:48 | 14.07358 | -14.93089 | 34721 ft | 473 kts | 107° |
| 2026-04-23 14:48 | 14.06477 | -14.89826 | 34890 ft | 475 kts | 107° |
| 2026-04-23 14:49 | 14.04697 | -14.83239 | 34887 ft | 478 kts | 107° |
| 2026-04-23 14:49 | 14.02920 | -14.76665 | 34874 ft | 472 kts | 107° |
| 2026-04-23 14:50 | 14.01161 | -14.70164 | 34895 ft | 471 kts | 107° |
| 2026-04-23 14:50 | 13.99400 | -14.63666 | 34886 ft | 470 kts | 107° |
| 2026-04-23 14:51 | 13.97651 | -14.57222 | 34887 ft | 470 kts | 107° |
| 2026-04-23 14:51 | 13.95887 | -14.50728 | 34886 ft | 471 kts | 107° |
| 2026-04-23 14:52 | 13.94122 | -14.44236 | 34889 ft | 471 kts | 107° |
| 2026-04-23 14:52 | 13.92347 | -14.37718 | 34887 ft | 472 kts | 107° |
| 2026-04-23 14:53 | 13.90571 | -14.31199 | 34882 ft | 473 kts | 107° |
| 2026-04-23 14:53 | 13.88791 | -14.24677 | 34883 ft | 474 kts | 107° |
| 2026-04-23 14:54 | 13.87005 | -14.18138 | 34885 ft | 474 kts | 107° |
| 2026-04-23 14:54 | 13.85231 | -14.11649 | 34881 ft | 474 kts | 107° |
| 2026-04-23 14:55 | 13.83443 | -14.05119 | 34877 ft | 474 kts | 107° |
| 2026-04-23 14:55 | 13.81674 | -13.98664 | 34874 ft | 474 kts | 107° |
| 2026-04-23 14:56 | 13.79886 | -13.92145 | 34868 ft | 473 kts | 108° |
| 2026-04-23 14:56 | 13.78101 | -13.85647 | 34856 ft | 471 kts | 108° |
| 2026-04-23 14:57 | 13.76320 | -13.79172 | 34853 ft | 469 kts | 108° |
| 2026-04-23 14:57 | 13.74546 | -13.72731 | 34855 ft | 467 kts | 108° |
| 2026-04-23 14:58 | 13.72784 | -13.66311 | 34856 ft | 466 kts | 107° |
| 2026-04-23 14:58 | 13.71400 | -13.59798 | 34857 ft | 466 kts | 103° |
| 2026-04-23 14:59 | 13.70197 | -13.53294 | 34860 ft | 466 kts | 103° |
| 2026-04-23 14:59 | 13.68967 | -13.46757 | 34862 ft | 466 kts | 103° |
| 2026-04-23 15:00 | 13.67698 | -13.40213 | 34859 ft | 466 kts | 104° |
| 2026-04-23 15:00 | 13.66415 | -13.33667 | 34853 ft | 467 kts | 104° |
| 2026-04-23 15:01 | 13.65126 | -13.27109 | 34852 ft | 468 kts | 104° |
| 2026-04-23 15:01 | 13.63845 | -13.20591 | 34845 ft | 469 kts | 104° |
| 2026-04-23 15:02 | 13.62551 | -13.14015 | 34843 ft | 469 kts | 104° |
| 2026-04-23 15:02 | 13.61253 | -13.07422 | 34845 ft | 470 kts | 104° |
| 2026-04-23 15:03 | 13.59953 | -13.00835 | 34840 ft | 470 kts | 104° |
| 2026-04-23 15:03 | 13.58666 | -12.94319 | 34838 ft | 471 kts | 104° |
| 2026-04-23 15:04 | 13.57360 | -12.87719 | 34831 ft | 471 kts | 104° |
| 2026-04-23 15:04 | 13.56061 | -12.81168 | 34827 ft | 471 kts | 104° |
| 2026-04-23 15:05 | 13.54752 | -12.74572 | 34824 ft | 470 kts | 104° |
| 2026-04-23 15:05 | 13.53447 | -12.67979 | 34826 ft | 470 kts | 104° |
| 2026-04-23 15:06 | 13.52154 | -12.61409 | 34819 ft | 468 kts | 104° |
| 2026-04-23 15:06 | 13.50861 | -12.54853 | 34810 ft | 467 kts | 104° |
| 2026-04-23 15:07 | 13.49572 | -12.48330 | 34815 ft | 465 kts | 104° |
| 2026-04-23 15:07 | 13.48284 | -12.41831 | 34807 ft | 463 kts | 104° |
| 2026-04-23 15:08 | 13.47006 | -12.35387 | 34809 ft | 462 kts | 104° |
| 2026-04-23 15:09 | 13.45080 | -12.25697 | 34803 ft | 460 kts | 104° |
| 2026-04-23 15:09 | 13.43795 | -12.19247 | 34804 ft | 460 kts | 104° |
| 2026-04-23 15:10 | 13.42723 | -12.13889 | 34796 ft | 460 kts | 104° |
| 2026-04-23 15:10 | 13.41211 | -12.06345 | 34794 ft | 461 kts | 104° |
| 2026-04-23 15:11 | 13.39927 | -11.99947 | 34790 ft | 462 kts | 104° |
| 2026-04-23 15:11 | 13.38638 | -11.93537 | 34786 ft | 463 kts | 104° |
| 2026-04-23 15:12 | 13.37335 | -11.87058 | 34781 ft | 463 kts | 104° |
| 2026-04-23 15:12 | 13.36026 | -11.80566 | 34786 ft | 464 kts | 104° |
| 2026-04-23 15:13 | 13.34716 | -11.74070 | 34781 ft | 464 kts | 104° |
| 2026-04-23 15:13 | 13.33404 | -11.67577 | 34778 ft | 465 kts | 104° |
| 2026-04-23 15:14 | 13.32098 | -11.61126 | 34777 ft | 464 kts | 104° |
| 2026-04-23 15:14 | 13.30782 | -11.54631 | 34774 ft | 464 kts | 104° |
| 2026-04-23 15:15 | 13.29466 | -11.48143 | 34775 ft | 464 kts | 104° |
| 2026-04-23 15:15 | 13.28147 | -11.41651 | 34774 ft | 464 kts | 104° |
| 2026-04-23 15:16 | 13.26829 | -11.35175 | 34777 ft | 463 kts | 104° |
| 2026-04-23 15:16 | 13.25510 | -11.28699 | 34774 ft | 463 kts | 105° |
| 2026-04-23 15:17 | 13.24190 | -11.22229 | 34781 ft | 462 kts | 104° |
| 2026-04-23 15:17 | 13.22882 | -11.15824 | 34765 ft | 461 kts | 104° |
| 2026-04-23 15:18 | 13.21565 | -11.09388 | 34763 ft | 460 kts | 104° |
| 2026-04-23 15:18 | 13.20253 | -11.02979 | 34765 ft | 458 kts | 104° |
| 2026-04-23 15:19 | 13.19178 | -10.97736 | 34763 ft | 457 kts | 104° |
| 2026-04-23 15:19 | 13.17870 | -10.91369 | 34774 ft | 455 kts | 104° |
| 2026-04-23 15:20 | 13.16562 | -10.85008 | 34757 ft | 454 kts | 104° |
| 2026-04-23 15:20 | 13.15259 | -10.78678 | 34758 ft | 453 kts | 104° |
| 2026-04-23 15:21 | 13.13942 | -10.72294 | 34840 ft | 462 kts | 104° |
| 2026-04-23 15:21 | 13.13273 | -10.69058 | 34950 ft | 465 kts | 104° |
| 2026-04-23 15:21 | 13.12602 | -10.65806 | 35154 ft | 466 kts | 104° |
| 2026-04-23 15:21 | 13.11931 | -10.62556 | 35444 ft | 464 kts | 105° |
| 2026-04-23 15:22 | 13.11261 | -10.59312 | 35737 ft | 463 kts | 105° |
| 2026-04-23 15:22 | 13.10594 | -10.56084 | 35984 ft | 463 kts | 105° |
| 2026-04-23 15:22 | 13.09924 | -10.52854 | 36148 ft | 464 kts | 105° |
| 2026-04-23 15:22 | 13.09261 | -10.49654 | 36363 ft | 464 kts | 105° |
| 2026-04-23 15:23 | 13.08590 | -10.46415 | 36645 ft | 462 kts | 105° |
| 2026-04-23 15:23 | 13.07922 | -10.43195 | 36922 ft | 460 kts | 105° |
| 2026-04-23 15:23 | 13.07255 | -10.39982 | 37155 ft | 460 kts | 105° |
| 2026-04-23 15:23 | 13.06587 | -10.36779 | 37352 ft | 460 kts | 105° |
| 2026-04-23 15:24 | 13.05916 | -10.33570 | 37572 ft | 459 kts | 105° |
| 2026-04-23 15:24 | 13.05249 | -10.30376 | 37802 ft | 458 kts | 105° |
| 2026-04-23 15:24 | 13.04579 | -10.27177 | 38009 ft | 458 kts | 105° |
| 2026-04-23 15:24 | 13.03911 | -10.23987 | 38179 ft | 458 kts | 105° |
| 2026-04-23 15:25 | 13.03241 | -10.20791 | 38380 ft | 458 kts | 106° |
| 2026-04-23 15:25 | 13.02576 | -10.17614 | 38653 ft | 454 kts | 105° |
| 2026-04-23 15:25 | 13.01914 | -10.14454 | 38767 ft | 454 kts | 105° |
| 2026-04-23 15:26 | 13.00579 | -10.08097 | 38778 ft | 455 kts | 105° |
| 2026-04-23 15:26 | 12.99258 | -10.01813 | 38783 ft | 452 kts | 105° |
| 2026-04-23 15:27 | 12.97951 | -9.95603 | 38785 ft | 450 kts | 105° |
| 2026-04-23 15:27 | 12.96633 | -9.89350 | 38786 ft | 448 kts | 105° |
| 2026-04-23 15:28 | 12.95315 | -9.83108 | 38790 ft | 447 kts | 105° |
| 2026-04-23 15:28 | 12.93999 | -9.76882 | 38787 ft | 446 kts | 105° |
| 2026-04-23 15:29 | 12.92689 | -9.70660 | 38784 ft | 446 kts | 105° |
| 2026-04-23 15:29 | 12.91386 | -9.64452 | 38787 ft | 445 kts | 105° |
| 2026-04-23 15:30 | 12.90083 | -9.58256 | 38785 ft | 445 kts | 105° |
| 2026-04-23 15:30 | 12.88787 | -9.52102 | 38787 ft | 445 kts | 105° |
| 2026-04-23 15:31 | 12.87477 | -9.45897 | 38785 ft | 445 kts | 105° |
| 2026-04-23 15:31 | 12.86162 | -9.39676 | 38789 ft | 446 kts | 105° |
| 2026-04-23 15:32 | 12.84846 | -9.33456 | 38791 ft | 447 kts | 105° |
| 2026-04-23 15:32 | 12.83524 | -9.27218 | 38791 ft | 449 kts | 105° |
| 2026-04-23 15:33 | 12.82195 | -9.20953 | 38797 ft | 450 kts | 105° |
| 2026-04-23 15:33 | 12.80862 | -9.14675 | 38798 ft | 451 kts | 105° |
| 2026-04-23 15:34 | 12.79524 | -9.08381 | 38795 ft | 453 kts | 105° |
| 2026-04-23 15:34 | 12.78188 | -9.02103 | 38798 ft | 454 kts | 105° |
| 2026-04-23 15:35 | 12.76858 | -8.95863 | 38805 ft | 456 kts | 105° |
| 2026-04-23 15:35 | 12.75502 | -8.89510 | 38810 ft | 457 kts | 105° |
| 2026-04-23 15:36 | 12.74139 | -8.83132 | 38803 ft | 459 kts | 105° |
| 2026-04-23 15:36 | 12.72772 | -8.76738 | 38809 ft | 460 kts | 105° |
| 2026-04-23 15:37 | 12.71401 | -8.70337 | 38807 ft | 460 kts | 105° |
| 2026-04-23 15:37 | 12.70028 | -8.63934 | 38806 ft | 461 kts | 105° |
| 2026-04-23 15:38 | 12.68652 | -8.57526 | 38811 ft | 460 kts | 105° |
| 2026-04-23 15:38 | 12.67273 | -8.51110 | 38805 ft | 461 kts | 105° |
| 2026-04-23 15:39 | 12.65897 | -8.44716 | 38813 ft | 460 kts | 105° |
| 2026-04-23 15:39 | 12.64518 | -8.38317 | 38810 ft | 460 kts | 105° |
| 2026-04-23 15:40 | 12.63139 | -8.31928 | 38820 ft | 459 kts | 104° |
| 2026-04-23 15:40 | 12.61764 | -8.25561 | 38814 ft | 457 kts | 104° |
| 2026-04-23 15:41 | 12.60401 | -8.19260 | 38816 ft | 455 kts | 104° |
| 2026-04-23 15:41 | 12.59036 | -8.12957 | 38819 ft | 453 kts | 105° |
| 2026-04-23 15:42 | 12.57675 | -8.06680 | 38799 ft | 451 kts | 105° |
| 2026-04-23 15:42 | 12.56316 | -8.00428 | 38803 ft | 449 kts | 105° |
| 2026-04-23 15:43 | 12.54987 | -7.94292 | 38802 ft | 448 kts | 103° |
| 2026-04-23 15:43 | 12.54471 | -7.87915 | 38811 ft | 451 kts | 93° |
| 2026-04-23 15:44 | 12.54405 | -7.81501 | 38804 ft | 452 kts | 92° |
| 2026-04-23 15:44 | 12.54331 | -7.75063 | 38802 ft | 453 kts | 93° |
| 2026-04-23 15:45 | 12.54220 | -7.68607 | 38807 ft | 454 kts | 93° |
| 2026-04-23 15:45 | 12.54089 | -7.62142 | 38805 ft | 456 kts | 93° |
| 2026-04-23 15:46 | 12.53951 | -7.55635 | 38793 ft | 458 kts | 93° |
| 2026-04-23 15:46 | 12.53813 | -7.49112 | 38803 ft | 459 kts | 93° |
| 2026-04-23 15:47 | 12.53673 | -7.42572 | 38798 ft | 460 kts | 93° |
| 2026-04-23 15:47 | 12.53532 | -7.36011 | 38794 ft | 461 kts | 93° |
| 2026-04-23 15:48 | 12.53390 | -7.29486 | 38794 ft | 462 kts | 93° |
| 2026-04-23 15:48 | 12.53245 | -7.22923 | 38785 ft | 462 kts | 93° |
| 2026-04-23 15:49 | 12.53099 | -7.16345 | 38786 ft | 461 kts | 94° |
| 2026-04-23 15:49 | 12.52952 | -7.09795 | 38781 ft | 460 kts | 94° |
| 2026-04-23 15:50 | 12.52803 | -7.03255 | 38779 ft | 459 kts | 94° |
| 2026-04-23 15:50 | 12.52654 | -6.96810 | 38776 ft | 458 kts | 94° |
| 2026-04-23 15:51 | 12.52503 | -6.90292 | 38780 ft | 457 kts | 94° |
| 2026-04-23 15:51 | 12.52350 | -6.83793 | 38772 ft | 457 kts | 93° |
| 2026-04-23 15:52 | 12.52196 | -6.77301 | 38767 ft | 455 kts | 93° |
| 2026-04-23 15:52 | 12.52041 | -6.70831 | 38768 ft | 454 kts | 93° |
| 2026-04-23 15:53 | 12.51885 | -6.64387 | 38760 ft | 452 kts | 93° |
| 2026-04-23 15:53 | 12.51729 | -6.58005 | 38762 ft | 451 kts | 93° |
| 2026-04-23 15:54 | 12.51571 | -6.51592 | 38761 ft | 450 kts | 93° |
| 2026-04-23 15:54 | 12.51411 | -6.45203 | 38755 ft | 449 kts | 93° |
| 2026-04-23 15:55 | 12.51249 | -6.38777 | 38764 ft | 454 kts | 93° |
| 2026-04-23 15:55 | 12.51083 | -6.32275 | 38772 ft | 460 kts | 93° |
| 2026-04-23 15:56 | 12.50915 | -6.25705 | 38765 ft | 463 kts | 93° |
| 2026-04-23 15:56 | 12.50745 | -6.19126 | 38759 ft | 466 kts | 93° |
| 2026-04-23 15:57 | 12.50572 | -6.12503 | 38739 ft | 462 kts | 93° |
| 2026-04-23 15:57 | 12.50402 | -6.05987 | 38735 ft | 456 kts | 93° |
| 2026-04-23 15:58 | 12.50231 | -5.99566 | 38754 ft | 458 kts | 93° |
| 2026-04-23 15:58 | 12.50054 | -5.93023 | 38752 ft | 461 kts | 93° |
| 2026-04-23 15:59 | 12.49875 | -5.86444 | 38751 ft | 464 kts | 93° |
| 2026-04-23 15:59 | 12.49695 | -5.79856 | 38747 ft | 467 kts | 93° |
| 2026-04-23 16:00 | 12.49512 | -5.73202 | 38739 ft | 468 kts | 93° |
| 2026-04-23 16:00 | 12.49326 | -5.66524 | 38730 ft | 470 kts | 93° |
| 2026-04-23 16:01 | 12.49138 | -5.59826 | 38737 ft | 471 kts | 93° |
| 2026-04-23 16:01 | 12.48949 | -5.53127 | 38731 ft | 471 kts | 93° |
| 2026-04-23 16:02 | 12.48757 | -5.46420 | 38724 ft | 471 kts | 93° |
| 2026-04-23 16:02 | 12.48564 | -5.39721 | 38725 ft | 470 kts | 93° |
| 2026-04-23 16:03 | 12.48372 | -5.33084 | 38717 ft | 469 kts | 93° |
| 2026-04-23 16:03 | 12.48176 | -5.26416 | 38719 ft | 468 kts | 93° |
| 2026-04-23 16:04 | 12.48012 | -5.20844 | 38722 ft | 467 kts | 93° |
| 2026-04-23 16:04 | 12.47815 | -5.14254 | 38720 ft | 466 kts | 93° |
| 2026-04-23 16:05 | 12.47616 | -5.07630 | 38717 ft | 465 kts | 93° |
| 2026-04-23 16:05 | 12.47416 | -5.01021 | 38726 ft | 465 kts | 93° |
| 2026-04-23 16:06 | 12.47217 | -4.94496 | 38726 ft | 465 kts | 93° |
| 2026-04-23 16:06 | 12.47014 | -4.87880 | 38720 ft | 465 kts | 93° |
| 2026-04-23 16:07 | 12.46809 | -4.81292 | 38725 ft | 466 kts | 93° |
| 2026-04-23 16:07 | 12.46601 | -4.74651 | 38723 ft | 466 kts | 93° |
| 2026-04-23 16:08 | 12.46392 | -4.68010 | 38726 ft | 467 kts | 93° |
| 2026-04-23 16:08 | 12.46179 | -4.61343 | 38722 ft | 468 kts | 93° |
| 2026-04-23 16:09 | 12.45966 | -4.54678 | 38723 ft | 469 kts | 93° |
| 2026-04-23 16:09 | 12.46344 | -4.48062 | 38738 ft | 471 kts | 82° |
| 2026-04-23 16:10 | 12.47486 | -4.41406 | 38714 ft | 472 kts | 81° |
| 2026-04-23 16:10 | 12.48614 | -4.34833 | 38717 ft | 472 kts | 82° |
| 2026-04-23 16:11 | 12.49658 | -4.28205 | 38717 ft | 472 kts | 82° |
| 2026-04-23 16:11 | 12.50664 | -4.21564 | 38712 ft | 472 kts | 82° |
| 2026-04-23 16:12 | 12.51665 | -4.14930 | 38714 ft | 471 kts | 82° |
| 2026-04-23 16:12 | 12.52667 | -4.08300 | 38700 ft | 471 kts | 82° |
| 2026-04-23 16:12 | 12.53171 | -4.04973 | 38457 ft | 476 kts | 82° |
| 2026-04-23 16:13 | 12.53679 | -4.01607 | 37896 ft | 478 kts | 82° |
| 2026-04-23 16:13 | 12.54674 | -3.95014 | 36781 ft | 475 kts | 82° |
| 2026-04-23 16:13 | 12.55175 | -3.91689 | 36362 ft | 470 kts | 82° |
| 2026-04-23 16:14 | 12.55671 | -3.88395 | 35960 ft | 466 kts | 82° |
| 2026-04-23 16:14 | 12.56161 | -3.85138 | 35571 ft | 462 kts | 82° |
| 2026-04-23 16:14 | 12.56564 | -3.81892 | 35162 ft | 457 kts | 88° |
| 2026-04-23 16:14 | 12.56616 | -3.78655 | 34765 ft | 453 kts | 92° |
| 2026-04-23 16:15 | 12.56530 | -3.75483 | 34360 ft | 450 kts | 93° |
| 2026-04-23 16:15 | 12.56401 | -3.72293 | 33943 ft | 448 kts | 93° |
| 2026-04-23 16:15 | 12.56276 | -3.69115 | 33514 ft | 445 kts | 92° |
| 2026-04-23 16:15 | 12.56170 | -3.65956 | 33070 ft | 443 kts | 92° |
| 2026-04-23 16:16 | 12.56085 | -3.62812 | 32650 ft | 440 kts | 91° |
| 2026-04-23 16:16 | 12.56015 | -3.59698 | 32243 ft | 437 kts | 91° |
| 2026-04-23 16:16 | 12.55954 | -3.56597 | 31838 ft | 434 kts | 90° |
| 2026-04-23 16:16 | 12.55896 | -3.53522 | 31444 ft | 431 kts | 90° |
| 2026-04-23 16:17 | 12.55841 | -3.50462 | 31057 ft | 429 kts | 89° |
| 2026-04-23 16:17 | 12.55785 | -3.47416 | 30668 ft | 426 kts | 89° |
| 2026-04-23 16:17 | 12.55729 | -3.44382 | 30262 ft | 425 kts | 89° |
| 2026-04-23 16:17 | 12.55672 | -3.41358 | 29880 ft | 423 kts | 88° |
| 2026-04-23 16:18 | 12.55615 | -3.38349 | 29423 ft | 422 kts | 88° |
| 2026-04-23 16:18 | 12.55558 | -3.35353 | 29013 ft | 418 kts | 88° |
| 2026-04-23 16:18 | 12.55500 | -3.32385 | 28587 ft | 415 kts | 89° |
| 2026-04-23 16:18 | 12.55444 | -3.29478 | 28184 ft | 412 kts | 89° |
| 2026-04-23 16:19 | 12.55387 | -3.26552 | 27778 ft | 409 kts | 89° |
| 2026-04-23 16:19 | 12.55330 | -3.23650 | 27382 ft | 407 kts | 89° |
| 2026-04-23 16:19 | 12.55273 | -3.20768 | 26987 ft | 404 kts | 89° |
| 2026-04-23 16:19 | 12.55216 | -3.17904 | 26597 ft | 401 kts | 89° |
| 2026-04-23 16:20 | 12.55159 | -3.15051 | 26206 ft | 399 kts | 89° |
| 2026-04-23 16:20 | 12.55102 | -3.12218 | 25815 ft | 397 kts | 89° |
| 2026-04-23 16:20 | 12.55045 | -3.09404 | 25420 ft | 395 kts | 89° |
| 2026-04-23 16:20 | 12.54988 | -3.06589 | 25011 ft | 394 kts | 90° |
| 2026-04-23 16:21 | 12.54931 | -3.03789 | 24630 ft | 392 kts | 89° |
| 2026-04-23 16:21 | 12.54874 | -3.01002 | 24222 ft | 392 kts | 90° |
| 2026-04-23 16:21 | 12.54818 | -2.98292 | 23842 ft | 390 kts | 90° |
| 2026-04-23 16:21 | 12.54761 | -2.95512 | 23444 ft | 389 kts | 90° |
| 2026-04-23 16:22 | 12.54703 | -2.92751 | 23008 ft | 388 kts | 90° |
| 2026-04-23 16:22 | 12.54645 | -2.89994 | 22598 ft | 385 kts | 90° |
| 2026-04-23 16:22 | 12.54587 | -2.87267 | 22194 ft | 383 kts | 90° |
| 2026-04-23 16:22 | 12.54530 | -2.84581 | 21805 ft | 380 kts | 90° |
| 2026-04-23 16:23 | 12.54472 | -2.81852 | 21417 ft | 377 kts | 90° |
| 2026-04-23 16:23 | 12.54415 | -2.79183 | 21035 ft | 375 kts | 90° |
| 2026-04-23 16:23 | 12.54358 | -2.76521 | 20661 ft | 372 kts | 91° |
| 2026-04-23 16:23 | 12.54117 | -2.73892 | 20255 ft | 371 kts | 99° |
| 2026-04-23 16:24 | 12.53621 | -2.71311 | 19880 ft | 369 kts | 103° |
| 2026-04-23 16:24 | 12.53046 | -2.68756 | 19511 ft | 367 kts | 104° |
| 2026-04-23 16:24 | 12.52461 | -2.66225 | 19136 ft | 365 kts | 103° |
| 2026-04-23 16:24 | 12.51894 | -2.63728 | 18767 ft | 363 kts | 103° |
| 2026-04-23 16:25 | 12.51337 | -2.61208 | 18382 ft | 362 kts | 103° |
| 2026-04-23 16:25 | 12.50794 | -2.58696 | 18026 ft | 361 kts | 103° |
| 2026-04-23 16:25 | 12.50261 | -2.56191 | 17614 ft | 359 kts | 102° |
| 2026-04-23 16:25 | 12.49736 | -2.53700 | 17237 ft | 357 kts | 102° |
| 2026-04-23 16:26 | 12.49218 | -2.51228 | 16865 ft | 354 kts | 102° |
| 2026-04-23 16:26 | 12.48705 | -2.48775 | 16503 ft | 350 kts | 102° |
| 2026-04-23 16:26 | 12.48197 | -2.46346 | 16146 ft | 347 kts | 102° |
| 2026-04-23 16:26 | 12.47692 | -2.43929 | 15798 ft | 344 kts | 101° |
| 2026-04-23 16:27 | 12.47195 | -2.41550 | 15450 ft | 340 kts | 101° |
| 2026-04-23 16:27 | 12.46702 | -2.39192 | 15110 ft | 337 kts | 101° |
| 2026-04-23 16:27 | 12.46214 | -2.36853 | 14764 ft | 334 kts | 101° |
| 2026-04-23 16:27 | 12.45730 | -2.34541 | 14423 ft | 331 kts | 101° |
| 2026-04-23 16:28 | 12.45251 | -2.32251 | 14084 ft | 328 kts | 101° |
| 2026-04-23 16:28 | 12.44780 | -2.30002 | 13747 ft | 326 kts | 100° |
| 2026-04-23 16:28 | 12.44307 | -2.27746 | 13404 ft | 323 kts | 100° |
| 2026-04-23 16:28 | 12.43839 | -2.25510 | 13031 ft | 320 kts | 100° |
| 2026-04-23 16:29 | 12.43375 | -2.23297 | 12678 ft | 317 kts | 100° |
| 2026-04-23 16:29 | 12.42915 | -2.21104 | 12330 ft | 314 kts | 100° |
| 2026-04-23 16:29 | 12.42460 | -2.18932 | 11994 ft | 311 kts | 100° |
| 2026-04-23 16:29 | 12.42008 | -2.16779 | 11661 ft | 308 kts | 100° |
| 2026-04-23 16:30 | 12.41559 | -2.14642 | 11325 ft | 305 kts | 100° |
| 2026-04-23 16:30 | 12.41115 | -2.12527 | 10998 ft | 303 kts | 100° |
| 2026-04-23 16:30 | 12.40674 | -2.10428 | 10671 ft | 301 kts | 100° |
| 2026-04-23 16:30 | 12.40235 | -2.08339 | 10347 ft | 299 kts | 100° |
| 2026-04-23 16:31 | 12.39800 | -2.06268 | 10034 ft | 297 kts | 101° |
| 2026-04-23 16:31 | 12.39370 | -2.04229 | 9894 ft | 288 kts | 101° |
| 2026-04-23 16:31 | 12.38955 | -2.02260 | 9847 ft | 276 kts | 100° |
| 2026-04-23 16:31 | 12.38555 | -2.00361 | 9645 ft | 271 kts | 100° |
| 2026-04-23 16:32 | 12.38171 | -1.98536 | 9382 ft | 269 kts | 100° |
| 2026-04-23 16:32 | 12.37783 | -1.96694 | 9097 ft | 267 kts | 100° |
| 2026-04-23 16:32 | 12.37393 | -1.94839 | 8808 ft | 266 kts | 101° |
| 2026-04-23 16:32 | 12.37004 | -1.92995 | 8528 ft | 264 kts | 101° |
| 2026-04-23 16:33 | 12.36617 | -1.91158 | 8237 ft | 263 kts | 101° |
| 2026-04-23 16:33 | 12.36234 | -1.89345 | 8075 ft | 257 kts | 101° |
| 2026-04-23 16:33 | 12.35857 | -1.87579 | 7932 ft | 251 kts | 103° |
| 2026-04-23 16:33 | 12.35141 | -1.85960 | 7681 ft | 251 kts | 122° |
| 2026-04-23 16:34 | 12.34160 | -1.84488 | 7448 ft | 250 kts | 122° |
| 2026-04-23 16:34 | 12.33186 | -1.83022 | 7199 ft | 249 kts | 122° |
| 2026-04-23 16:34 | 12.32227 | -1.81566 | 6947 ft | 249 kts | 121° |
| 2026-04-23 16:34 | 12.31251 | -1.80078 | 6683 ft | 249 kts | 122° |
| 2026-04-23 16:35 | 12.30285 | -1.78597 | 6405 ft | 251 kts | 122° |
| 2026-04-23 16:35 | 12.29315 | -1.77107 | 6134 ft | 252 kts | 122° |
| 2026-04-23 16:35 | 12.28356 | -1.75630 | 5847 ft | 252 kts | 122° |
| 2026-04-23 16:35 | 12.27392 | -1.74144 | 5595 ft | 251 kts | 122° |
| 2026-04-23 16:36 | 12.26427 | -1.72657 | 5323 ft | 251 kts | 122° |
| 2026-04-23 16:36 | 12.25462 | -1.71168 | 5066 ft | 251 kts | 122° |
| 2026-04-23 16:36 | 12.24506 | -1.69692 | 4822 ft | 244 kts | 121° |
| 2026-04-23 16:36 | 12.23595 | -1.68290 | 4655 ft | 228 kts | 121° |
| 2026-04-23 16:37 | 12.22752 | -1.66990 | 4540 ft | 210 kts | 122° |
| 2026-04-23 16:37 | 12.21959 | -1.65760 | 4196 ft | 205 kts | 121° |
| 2026-04-23 16:37 | 12.21203 | -1.64591 | 4093 ft | 191 kts | 121° |
| 2026-04-23 16:37 | 12.20616 | -1.63426 | 4057 ft | 183 kts | 97° |
| 2026-04-23 16:38 | 12.20637 | -1.62133 | 3983 ft | 184 kts | 75° |
| 2026-04-23 16:38 | 12.21308 | -1.61048 | 3836 ft | 184 kts | 39° |
| 2026-04-23 16:38 | 12.22314 | -1.60212 | 3596 ft | 188 kts | 40° |
| 2026-04-23 16:38 | 12.23318 | -1.59375 | 3365 ft | 186 kts | 37° |
| 2026-04-23 16:39 | 12.24362 | -1.58624 | 3155 ft | 181 kts | 33° |
| 2026-04-23 16:39 | 12.25396 | -1.57922 | 2936 ft | 176 kts | 32° |
| 2026-04-23 16:39 | 12.26416 | -1.57234 | 2714 ft | 176 kts | 33° |
| 2026-04-23 16:39 | 12.27438 | -1.56545 | 2511 ft | 176 kts | 33° |
| 2026-04-23 16:40 | 12.28439 | -1.55869 | 2301 ft | 167 kts | 33° |
| 2026-04-23 16:40 | 12.29369 | -1.55241 | 2108 ft | 158 kts | 33° |
| 2026-04-23 16:40 | 12.30271 | -1.54634 | 1905 ft | 155 kts | 33° |
| 2026-04-23 16:40 | 12.31175 | -1.54023 | 1758 ft | 155 kts | 32° |
| 2026-04-23 16:41 | 12.32068 | -1.53411 | 1580 ft | 153 kts | 33° |
| 2026-04-23 16:41 | 12.32953 | -1.52810 | 1382 ft | 152 kts | 32° |
| 2026-04-23 16:41 | 12.33826 | -1.52228 | 1153 ft | 146 kts | 32° |
| 2026-04-23 16:41 | 12.34661 | -1.51671 | 1038 ft | 135 kts | 32° |
| 2026-04-23 16:42 | 12.35295 | -1.51250 | 1016 ft | 77 kts | 33° |
| 2026-04-23 16:42 | 12.35587 | -1.51055 | 1011 ft | 38 kts | 33° |
| 2026-04-23 16:42 | 12.35729 | -1.50961 | 1007 ft | 19 kts | 33° |
| 2026-04-23 16:42 | 12.35812 | -1.50915 | 1006 ft | 10 kts | 16° |
| 2026-04-23 16:43 | 12.35810 | -1.50901 | 1006 ft | 2 kts | 135° |
| 2026-04-23 16:43 | 12.35791 | -1.50913 | 1006 ft | 7 kts | 219° |
| 2026-04-23 16:43 | 12.35734 | -1.50956 | 1007 ft | 13 kts | 214° |
| 2026-04-23 16:43 | 12.35645 | -1.51016 | 1009 ft | 16 kts | 213° |
| 2026-04-23 16:44 | 12.35552 | -1.51078 | 1011 ft | 16 kts | 214° |
| 2026-04-23 16:44 | 12.35459 | -1.51141 | 1011 ft | 17 kts | 213° |
| 2026-04-23 16:44 | 12.35389 | -1.51196 | 1012 ft | 10 kts | 244° |
| 2026-04-23 16:44 | 12.35409 | -1.51263 | 1011 ft | 10 kts | 302° |
| 2026-04-23 16:45 | 12.35428 | -1.51317 | 1011 ft | 9 kts | 254° |
| 2026-04-23 16:45 | 12.35400 | -1.51349 | 1012 ft | 4 kts | 215° |
| 2026-04-23 16:45 | 12.35399 | -1.51377 | 1013 ft | 7 kts | 291° |
| 2026-04-23 16:45 | 12.35411 | -1.51393 | 1013 ft | 0 kts | 306° |